Time;durP1;ratioP1;P1;durP2;ratioP2;P2;SDS_P1;SDS_P2;PMS_P1;PMS_P2;Temp;Humidity;BMP_temperature;BMP_pressure;BME280_temperature;BME280_humidity;BME280_pressure;Samples;Min_cycle;Max_cycle;Signal;HPM_P1;HPM_P2
2023/02/05 00:01:49;;;;;;;6.43;4.20;;;9.40;99.90;;;;;;5054082;28;20234;-71
2023/02/05 00:04:14;;;;;;;11.23;5.20;;;9.30;99.90;;;;;;5053971;28;20167;-71
2023/02/05 00:06:40;;;;;;;15.43;7.23;;;9.30;99.90;;;;;;5054202;28;20191;-71
2023/02/05 00:09:05;;;;;;;11.50;5.10;;;9.30;99.90;;;;;;5053988;28;20599;-70
2023/02/05 00:11:31;;;;;;;8.53;4.40;;;9.30;99.90;;;;;;5054112;28;20248;-70
2023/02/05 00:13:56;;;;;;;7.93;4.70;;;9.30;99.90;;;;;;5054071;28;20253;-71
2023/02/05 00:16:23;;;;;;;9.33;4.43;;;9.30;99.90;;;;;;5053708;28;20175;-70
2023/02/05 00:18:50;;;;;;;13.33;6.43;;;9.30;99.90;;;;;;5040712;28;20536;-70
2023/02/05 00:21:17;;;;;;;7.53;4.43;;;9.30;99.90;;;;;;5033591;28;20451;-70
2023/02/05 00:23:42;;;;;;;7.97;4.90;;;9.30;99.90;;;;;;5053245;28;20412;-70
2023/02/05 00:26:18;;;;;;;15.07;5.80;;;9.30;99.90;;;;;;5058063;28;20536;-70
2023/02/05 00:28:44;;;;;;;9.00;4.80;;;9.20;99.90;;;;;;5053929;28;20236;-71
2023/02/05 00:31:16;;;;;;;11.03;5.67;;;9.20;99.90;;;;;;5053629;28;20425;-71
2023/02/05 00:33:42;;;;;;;6.60;4.30;;;9.20;99.90;;;;;;5053713;28;20484;-71
2023/02/05 00:36:09;;;;;;;10.10;5.20;;;9.20;99.90;;;;;;5053273;28;20814;-71
2023/02/05 00:38:35;;;;;;;11.10;5.60;;;9.20;99.90;;;;;;5053453;28;20413;-70
2023/02/05 00:41:01;;;;;;;9.57;4.93;;;9.20;99.90;;;;;;5053594;28;20430;-70
2023/02/05 00:43:26;;;;;;;14.00;5.20;;;9.20;99.90;;;;;;5053383;28;20944;-70
2023/02/05 00:45:52;;;;;;;9.37;5.00;;;9.20;99.90;;;;;;5042360;28;20211;-70
2023/02/05 00:48:17;;;;;;;9.80;5.73;;;9.20;99.90;;;;;;5038318;28;20232;-70
2023/02/05 00:50:43;;;;;;;15.90;5.63;;;9.20;99.90;;;;;;5053333;28;20187;-70
2023/02/05 00:53:08;;;;;;;9.27;6.43;;;9.20;99.90;;;;;;5053124;28;20700;-70
2023/02/05 00:55:34;;;;;;;16.70;7.27;;;9.20;99.90;;;;;;5053083;28;20506;-70
2023/02/05 00:58:00;;;;;;;15.10;7.33;;;9.20;99.90;;;;;;5053110;28;20513;-70
2023/02/05 01:00:26;;;;;;;19.00;6.03;;;9.20;99.90;;;;;;5053026;28;20186;-70
2023/02/05 01:02:52;;;;;;;10.60;6.60;;;9.20;99.90;;;;;;5052823;28;20810;-70
2023/02/05 01:05:18;;;;;;;14.07;5.87;;;9.10;99.90;;;;;;5052563;28;20480;-70
2023/02/05 01:07:43;;;;;;;13.73;6.67;;;9.10;99.90;;;;;;5053038;28;20493;-70
2023/02/05 01:10:09;;;;;;;9.27;5.80;;;9.20;99.90;;;;;;5052603;28;20199;-70
2023/02/05 01:12:35;;;;;;;12.00;6.20;;;9.10;99.90;;;;;;5052950;28;20176;-70
2023/02/05 01:15:02;;;;;;;13.90;6.43;;;9.10;99.90;;;;;;5052510;28;20544;-70
2023/02/05 01:17:27;;;;;;;12.57;5.87;;;9.10;99.90;;;;;;5052531;28;20171;-70
2023/02/05 01:19:53;;;;;;;13.20;5.77;;;9.10;99.90;;;;;;5052623;28;20435;-70
2023/02/05 01:22:19;;;;;;;9.80;6.23;;;9.10;99.90;;;;;;5052580;28;20635;-71
2023/02/05 01:24:44;;;;;;;13.80;5.87;;;9.10;99.90;;;;;;5052503;28;20167;-70
2023/02/05 01:27:10;;;;;;;19.73;6.77;;;9.10;99.90;;;;;;5052671;28;20563;-70
2023/02/05 01:29:35;;;;;;;13.53;5.47;;;9.00;99.90;;;;;;5052546;28;20198;-70
2023/02/05 01:32:01;;;;;;;13.70;5.43;;;9.00;99.90;;;;;;5052468;28;20198;-70
2023/02/05 01:34:26;;;;;;;11.77;5.50;;;9.00;99.90;;;;;;5053593;28;20794;-70
2023/02/05 01:36:52;;;;;;;13.57;5.20;;;9.00;99.90;;;;;;5049988;28;20213;-70
2023/02/05 01:39:17;;;;;;;16.80;5.37;;;9.00;99.90;;;;;;5072468;28;20193;-70
2023/02/05 01:41:44;;;;;;;11.40;4.53;;;8.90;99.90;;;;;;5072493;28;20185;-70
2023/02/05 01:44:12;;;;;;;11.50;5.10;;;8.80;99.90;;;;;;5072242;28;20173;-70
2023/02/05 01:46:40;;;;;;;11.70;5.87;;;8.80;99.90;;;;;;5050374;28;20450;-70
2023/02/05 01:49:11;;;;;;;8.30;5.10;;;8.40;99.90;;;;;;5040652;28;20767;-70
2023/02/05 01:51:36;;;;;;;14.83;6.27;;;8.40;99.90;;;;;;5032327;28;20505;-70
2023/02/05 01:54:03;;;;;;;18.00;6.37;;;8.30;99.90;;;;;;5032225;28;20437;-70
2023/02/05 01:56:34;;;;;;;16.33;6.60;;;8.20;99.90;;;;;;5031979;28;20175;-70
2023/02/05 01:59:15;;;;;;;8.30;5.40;;;8.10;99.90;;;;;;5032252;28;20411;-70
2023/02/05 02:01:41;;;;;;;14.00;5.90;;;8.00;99.90;;;;;;5032049;28;20418;-70
2023/02/05 02:04:08;;;;;;;14.37;6.37;;;8.00;99.90;;;;;;5031993;28;20416;-70
2023/02/05 02:06:34;;;;;;;17.07;5.90;;;8.00;99.90;;;;;;5030646;28;20525;-70
2023/02/05 02:09:01;;;;;;;24.13;7.63;;;8.00;99.90;;;;;;5031318;28;20429;-70
2023/02/05 02:11:29;;;;;;;18.93;7.40;;;8.00;99.90;;;;;;5031970;28;20477;-70
2023/02/05 02:13:58;;;;;;;15.57;8.03;;;7.90;99.90;;;;;;5031966;28;20410;-70
2023/02/05 02:16:26;;;;;;;17.23;9.07;;;7.80;99.90;;;;;;5031747;28;20411;-70
2023/02/05 02:18:53;;;;;;;14.03;8.40;;;7.90;99.90;;;;;;5040818;28;20406;-70
2023/02/05 02:21:42;;;;;;;13.97;7.80;;;7.90;99.90;;;;;;5051691;28;20425;-70
2023/02/05 02:24:17;;;;;;;15.10;7.83;;;8.00;99.90;;;;;;5051856;28;20410;-71
2023/02/05 02:27:08;;;;;;;19.70;7.80;;;8.00;99.90;;;;;;5051669;28;20452;-69
2023/02/05 02:29:39;;;;;;;17.53;8.13;;;8.10;99.90;;;;;;5051763;28;20472;-68
2023/02/05 02:32:28;;;;;;;13.20;8.83;;;8.10;99.90;;;;;;5051630;28;20781;-69
2023/02/05 02:35:26;;;;;;;11.87;7.10;;;8.10;99.90;;;;;;5051293;28;20420;-68
2023/02/05 02:38:05;;;;;;;13.30;8.17;;;8.10;99.90;;;;;;5050033;28;20421;-69
2023/02/05 02:40:52;;;;;;;18.77;8.07;;;8.20;99.90;;;;;;5051765;28;20475;-69
2023/02/05 02:43:57;;;;;;;21.53;8.37;;;8.30;99.90;;;;;;5051680;28;20404;-69
2023/02/05 02:46:34;;;;;;;13.63;8.13;;;8.30;99.90;;;;;;5046061;28;20471;-72
2023/02/05 02:49:04;;;;;;;16.10;9.30;;;8.30;99.90;;;;;;5063405;28;20416;-71
2023/02/05 02:51:32;;;;;;;8.70;6.70;;;8.30;99.90;;;;;;5071658;28;20408;-71
2023/02/05 02:54:02;;;;;;;21.17;8.60;;;8.40;99.90;;;;;;5071463;28;20403;-71
2023/02/05 02:56:32;;;;;;;18.63;8.00;;;8.40;99.90;;;;;;5071397;28;20407;-71
2023/02/05 02:59:06;;;;;;;14.77;8.03;;;8.50;99.90;;;;;;5071335;28;20396;-72
2023/02/05 03:01:34;;;;;;;12.20;9.07;;;8.50;99.90;;;;;;5071577;28;20407;-71
2023/02/05 03:04:14;;;;;;;20.57;9.50;;;8.60;99.90;;;;;;5071567;28;20462;-71
2023/02/05 03:06:43;;;;;;;21.20;10.53;;;8.50;99.90;;;;;;5071320;28;20432;-72
2023/02/05 03:09:20;;;;;;;24.60;10.50;;;8.50;99.90;;;;;;5071220;28;20439;-72
2023/02/05 03:11:46;;;;;;;25.00;10.80;;;8.50;99.90;;;;;;5070049;28;20424;-71
2023/02/05 03:14:12;;;;;;;19.43;10.87;;;8.50;99.90;;;;;;5071252;28;20416;-72
2023/02/05 03:16:37;;;;;;;22.70;11.43;;;8.60;99.90;;;;;;5052459;28;20425;-72
2023/02/05 03:19:05;;;;;;;22.47;11.20;;;8.50;99.90;;;;;;5031277;28;20179;-72
2023/02/05 03:21:38;;;;;;;21.23;10.00;;;8.40;99.90;;;;;;5033101;28;20563;-71
2023/02/05 03:24:04;;;;;;;18.40;9.37;;;8.30;99.90;;;;;;5035095;28;20513;-70
2023/02/05 03:26:34;;;;;;;17.50;9.20;;;8.30;99.90;;;;;;5034692;28;20450;-70
2023/02/05 03:29:06;;;;;;;19.30;8.30;;;8.30;99.90;;;;;;5034958;28;20416;-70
2023/02/05 03:31:46;;;;;;;17.10;9.53;;;8.30;99.90;;;;;;5035029;28;20485;-71
2023/02/05 03:34:26;;;;;;;20.27;9.37;;;8.30;99.90;;;;;;5034791;28;20409;-71
2023/02/05 03:37:00;;;;;;;16.67;8.80;;;8.30;99.90;;;;;;5034915;28;20410;-72
2023/02/05 03:39:59;;;;;;;12.43;8.37;;;8.30;99.90;;;;;;5034690;28;20516;-72
2023/02/05 03:42:45;;;;;;;21.90;9.73;;;8.40;99.90;;;;;;5023392;28;20418;-70
2023/02/05 03:45:19;;;;;;;22.77;10.17;;;8.40;99.90;;;;;;5034265;28;20424;-71
2023/02/05 03:47:44;;;;;;;18.13;10.77;;;8.40;99.90;;;;;;5035743;28;20411;-71
2023/02/05 03:50:15;;;;;;;24.97;11.33;;;8.50;99.90;;;;;;5034414;28;20513;-71
2023/02/05 03:52:46;;;;;;;18.90;8.90;;;8.50;99.90;;;;;;5039211;28;20186;-71
2023/02/05 03:55:17;;;;;;;15.97;8.97;;;8.60;99.90;;;;;;5065120;28;20820;-71
2023/02/05 03:58:00;;;;;;;16.37;7.87;;;8.50;99.90;;;;;;5054233;28;20397;-71
2023/02/05 04:00:27;;;;;;;17.27;9.47;;;8.50;99.90;;;;;;5054013;28;20413;-71
2023/02/05 04:02:53;;;;;;;15.13;8.90;;;8.40;99.90;;;;;;5054216;28;20713;-71
2023/02/05 04:05:21;;;;;;;14.60;8.37;;;8.40;99.90;;;;;;5052423;28;20410;-72
2023/02/05 04:07:50;;;;;;;20.03;9.80;;;8.30;99.90;;;;;;5054180;28;20183;-73
2023/02/05 04:10:18;;;;;;;12.33;7.60;;;8.40;99.90;;;;;;5053874;28;20441;-73
2023/02/05 04:12:43;;;;;;;20.87;9.60;;;8.40;99.90;;;;;;5053937;28;20398;-73
2023/02/05 04:15:09;;;;;;;21.37;10.43;;;8.40;99.90;;;;;;5052308;28;20422;-71
2023/02/05 04:17:38;;;;;;;34.10;16.70;;;8.30;99.90;;;;;;5053852;28;20174;-71
2023/02/05 04:20:05;;;;;;;19.00;10.67;;;8.40;99.90;;;;;;5053879;28;20432;-72
2023/02/05 04:22:32;;;;;;;22.50;10.83;;;8.20;99.90;;;;;;5053822;28;20817;-70
2023/02/05 04:24:57;;;;;;;19.70;9.47;;;8.20;99.90;;;;;;5053663;28;20497;-70
2023/02/05 04:27:23;;;;;;;20.20;8.90;;;8.30;99.90;;;;;;5053589;28;20540;-71
2023/02/05 04:29:48;;;;;;;18.00;8.60;;;8.40;99.90;;;;;;5053686;28;20229;-72
2023/02/05 04:32:14;;;;;;;20.53;8.77;;;8.40;99.90;;;;;;5053281;28;20690;-70
2023/02/05 04:34:39;;;;;;;16.63;10.60;;;8.50;99.90;;;;;;5053330;28;20216;-72
2023/02/05 04:37:05;;;;;;;25.07;11.10;;;8.60;99.90;;;;;;5053578;28;20204;-72
2023/02/05 04:39:30;;;;;;;20.00;9.70;;;8.70;99.90;;;;;;5053409;28;20558;-72
2023/02/05 04:41:56;;;;;;;26.27;11.47;;;8.70;99.90;;;;;;5053507;28;20237;-71
2023/02/05 04:44:21;;;;;;;23.63;11.87;;;8.80;99.90;;;;;;5053037;28;20641;-72
2023/02/05 04:46:47;;;;;;;26.50;12.70;;;8.80;99.90;;;;;;5040669;28;20684;-72
2023/02/05 04:49:12;;;;;;;32.93;13.57;;;8.90;99.90;;;;;;5033302;28;20186;-72
2023/02/05 04:51:38;;;;;;;27.17;11.77;;;8.90;99.90;;;;;;5033499;28;20172;-71
2023/02/05 04:54:04;;;;;;;26.33;12.80;;;9.00;99.90;;;;;;5033521;28;20172;-71
2023/02/05 04:56:29;;;;;;;29.57;10.80;;;9.00;99.90;;;;;;5032955;28;20199;-71
2023/02/05 04:58:55;;;;;;;24.13;12.33;;;9.00;99.90;;;;;;5033179;28;20167;-71
2023/02/05 05:01:22;;;;;;;23.53;14.07;;;9.00;99.90;;;;;;5033159;28;20229;-71
2023/02/05 05:03:48;;;;;;;22.60;10.07;;;9.00;99.90;;;;;;5033516;28;20618;-72
2023/02/05 05:06:15;;;;;;;24.40;13.53;;;8.90;99.90;;;;;;5064730;28;20441;-71
2023/02/05 05:08:40;;;;;;;27.90;12.43;;;8.90;99.90;;;;;;5052946;28;20402;-71
2023/02/05 05:11:11;;;;;;;21.37;13.77;;;8.90;99.90;;;;;;5052846;28;20490;-73
2023/02/05 05:13:37;;;;;;;22.23;11.03;;;8.80;99.90;;;;;;5053039;28;20222;-72
2023/02/05 05:16:04;;;;;;;22.00;12.77;;;8.80;99.90;;;;;;5038241;28;20438;-73
2023/02/05 05:18:30;;;;;;;25.93;13.90;;;8.80;99.90;;;;;;5032819;28;20183;-71
2023/02/05 05:20:55;;;;;;;33.10;14.37;;;8.80;99.90;;;;;;5031720;28;20438;-71
2023/02/05 05:23:22;;;;;;;30.57;14.43;;;8.80;99.90;;;;;;5032811;28;20194;-71
2023/02/05 05:25:48;;;;;;;32.00;12.57;;;8.80;99.90;;;;;;5032536;28;20245;-70
2023/02/05 05:28:15;;;;;;;24.40;13.60;;;8.70;99.90;;;;;;5032663;28;20758;-70
2023/02/05 05:30:43;;;;;;;23.00;12.47;;;8.70;99.90;;;;;;5032737;28;20793;-72
2023/02/05 05:33:09;;;;;;;26.70;12.67;;;8.70;99.90;;;;;;5032499;28;20935;-72
2023/02/05 05:35:35;;;;;;;24.93;12.80;;;8.70;99.90;;;;;;5032478;28;20417;-70
2023/02/05 05:38:01;;;;;;;20.30;11.23;;;8.70;99.90;;;;;;5031402;28;20410;-70
2023/02/05 05:45:58;;;;;;;26.53;11.60;;;8.60;99.90;;;;;;5033925;28;20970;-73
2023/02/05 05:48:23;;;;;;;21.57;11.77;;;8.60;99.90;;;;;;5032502;28;20407;-72
2023/02/05 05:50:49;;;;;;;25.37;10.87;;;8.60;99.90;;;;;;5032245;28;20191;-72
2023/02/05 05:53:15;;;;;;;28.43;12.30;;;8.50;99.90;;;;;;5032334;28;20164;-71
2023/02/05 05:55:41;;;;;;;18.03;10.23;;;8.60;99.90;;;;;;5031884;28;20183;-72
2023/02/05 05:58:07;;;;;;;25.43;11.70;;;8.50;99.90;;;;;;5032211;28;20808;-73
2023/02/05 06:00:34;;;;;;;21.60;10.57;;;8.50;99.90;;;;;;5032197;28;20445;-71
2023/02/05 06:02:59;;;;;;;20.97;11.50;;;8.50;99.90;;;;;;5032301;28;20407;-72
2023/02/05 06:05:25;;;;;;;23.73;12.87;;;8.50;99.90;;;;;;5031920;28;20421;-70
2023/02/05 06:07:50;;;;;;;25.27;13.70;;;8.50;99.90;;;;;;5030908;28;20228;-70
2023/02/05 06:10:16;;;;;;;26.97;14.53;;;8.50;99.90;;;;;;5032074;28;20211;-70
2023/02/05 06:12:41;;;;;;;30.70;14.20;;;8.50;99.90;;;;;;5032067;28;20175;-70
2023/02/05 06:15:07;;;;;;;21.70;13.93;;;8.50;99.90;;;;;;5031871;28;20168;-72
2023/02/05 06:17:33;;;;;;;28.13;14.43;;;8.50;99.90;;;;;;5061261;28;20195;-72
2023/02/05 06:19:58;;;;;;;27.60;13.50;;;8.50;99.90;;;;;;5071913;28;20431;-72
2023/02/05 06:22:24;;;;;;;27.00;15.00;;;8.50;99.90;;;;;;5071747;28;20170;-72
2023/02/05 06:24:49;;;;;;;27.23;14.37;;;8.50;99.90;;;;;;5071676;28;20181;-72
2023/02/05 06:27:15;;;;;;;26.10;13.17;;;8.50;99.90;;;;;;5071903;28;20233;-72
2023/02/05 06:29:40;;;;;;;24.93;14.83;;;8.50;99.90;;;;;;5071629;28;20281;-72
2023/02/05 06:32:06;;;;;;;31.03;14.97;;;8.50;99.90;;;;;;5071816;28;20223;-72
2023/02/05 06:34:31;;;;;;;30.50;13.10;;;8.50;99.90;;;;;;5071514;28;20190;-72
2023/02/05 06:36:57;;;;;;;31.83;15.50;;;8.50;99.90;;;;;;5071793;28;20253;-72
2023/02/05 06:39:22;;;;;;;23.03;11.33;;;8.50;99.90;;;;;;5070316;28;20247;-72
2023/02/05 06:41:48;;;;;;;22.87;13.30;;;8.50;99.90;;;;;;5071742;28;20177;-71
2023/02/05 06:44:13;;;;;;;23.93;12.93;;;8.40;99.90;;;;;;5067724;28;20186;-73
2023/02/05 06:46:39;;;;;;;21.97;12.87;;;8.40;99.90;;;;;;5034279;28;20277;-73
2023/02/05 06:49:04;;;;;;;19.97;11.50;;;8.40;99.90;;;;;;5031607;28;20588;-73
2023/02/05 06:51:30;;;;;;;25.40;12.97;;;8.40;99.90;;;;;;5030275;28;20598;-74
2023/02/05 06:53:56;;;;;;;27.67;13.10;;;8.40;99.90;;;;;;5031727;28;20243;-71
2023/02/05 06:56:23;;;;;;;22.20;12.17;;;8.40;99.90;;;;;;5034664;28;20514;-72
2023/02/05 06:58:48;;;;;;;25.93;12.97;;;8.40;99.90;;;;;;5035719;28;20191;-72
2023/02/05 07:01:14;;;;;;;29.37;14.13;;;8.40;99.90;;;;;;5034188;28;20847;-71
2023/02/05 07:03:39;;;;;;;25.33;12.87;;;8.40;99.90;;;;;;5035667;28;20532;-71
2023/02/05 07:06:05;;;;;;;21.97;13.03;;;8.40;99.90;;;;;;5035287;28;20191;-71
2023/02/05 07:08:31;;;;;;;23.77;13.57;;;8.40;99.90;;;;;;5035375;28;20175;-72
2023/02/05 07:10:57;;;;;;;24.13;14.40;;;8.40;99.90;;;;;;5035298;28;20426;-72
2023/02/05 07:13:23;;;;;;;23.70;12.43;;;8.30;99.90;;;;;;5035328;28;20419;-71
2023/02/05 07:15:49;;;;;;;18.83;12.20;;;8.30;99.90;;;;;;5035277;28;20176;-71
2023/02/05 07:18:14;;;;;;;24.03;12.30;;;8.40;99.90;;;;;;5035210;28;20977;-71
2023/02/05 07:20:40;;;;;;;19.97;12.83;;;8.40;99.90;;;;;;5035112;28;20217;-72
2023/02/05 07:23:06;;;;;;;24.60;13.30;;;8.30;99.90;;;;;;5035080;28;20175;-71
2023/02/05 07:25:36;;;;;;;26.40;14.30;;;8.40;99.90;;;;;;5034658;28;20214;-72
2023/02/05 07:28:06;;;;;;;22.47;12.47;;;8.40;99.90;;;;;;5050470;28;20420;-72
2023/02/05 07:30:32;;;;;;;19.43;10.73;;;8.40;99.90;;;;;;5060186;28;20829;-71
2023/02/05 07:32:59;;;;;;;23.03;11.60;;;8.40;99.90;;;;;;5054973;28;20456;-71
2023/02/05 07:35:25;;;;;;;21.10;12.47;;;8.50;99.90;;;;;;5054447;28;20480;-71
2023/02/05 07:37:50;;;;;;;23.87;13.33;;;8.50;99.90;;;;;;5054797;28;20851;-69
2023/02/05 07:40:16;;;;;;;17.43;11.50;;;8.50;99.90;;;;;;5053124;28;20191;-72
2023/02/05 07:42:42;;;;;;;20.23;10.37;;;8.50;99.90;;;;;;5046263;28;20179;-70
2023/02/05 07:45:08;;;;;;;21.47;13.07;;;8.50;99.90;;;;;;5049838;28;20585;-69
2023/02/05 07:47:33;;;;;;;21.07;12.50;;;8.50;99.90;;;;;;5034706;28;20545;-70
2023/02/05 07:49:59;;;;;;;17.70;11.30;;;8.50;99.90;;;;;;5034549;28;20466;-71
2023/02/05 07:52:24;;;;;;;19.83;12.93;;;8.50;99.90;;;;;;5034651;28;20183;-71
2023/02/05 07:54:50;;;;;;;28.33;13.53;;;8.50;99.90;;;;;;5033085;28;20174;-71
2023/02/05 07:57:15;;;;;;;19.90;11.90;;;8.50;99.90;;;;;;5034442;28;20258;-71
2023/02/05 07:59:41;;;;;;;20.60;14.07;;;8.50;99.90;;;;;;5034469;28;20584;-73
2023/02/05 08:02:08;;;;;;;21.10;13.53;;;8.50;99.90;;;;;;5034449;28;20222;-72
2023/02/05 08:04:34;;;;;;;21.43;12.50;;;8.50;99.90;;;;;;5034122;28;20207;-71
2023/02/05 08:06:59;;;;;;;16.87;13.30;;;8.50;99.90;;;;;;5033494;28;20836;-71
2023/02/05 08:09:25;;;;;;;20.03;11.47;;;8.40;99.90;;;;;;5034200;28;20210;-70
2023/02/05 08:11:51;;;;;;;27.27;13.10;;;8.50;99.90;;;;;;5048655;28;20301;-72
2023/02/05 08:14:16;;;;;;;17.50;10.60;;;8.50;99.90;;;;;;5054093;28;20167;-71
2023/02/05 08:16:42;;;;;;;21.17;12.97;;;8.50;99.90;;;;;;5054171;28;20213;-70
2023/02/05 08:19:13;;;;;;;17.13;11.40;;;8.50;99.90;;;;;;5053925;28;20189;-71
2023/02/05 08:21:39;;;;;;;20.43;12.07;;;8.50;99.90;;;;;;5054413;28;20155;-71
2023/02/05 08:24:05;;;;;;;25.30;15.37;;;8.50;99.90;;;;;;5054076;28;20409;-71
2023/02/05 08:26:30;;;;;;;22.17;13.90;;;8.50;99.90;;;;;;5053822;28;20187;-71
2023/02/05 08:28:56;;;;;;;20.70;13.20;;;8.50;99.90;;;;;;5054015;28;20163;-71
2023/02/05 08:31:21;;;;;;;20.87;12.10;;;8.50;99.90;;;;;;5053450;28;20543;-71
2023/02/05 08:33:49;;;;;;;22.47;13.30;;;8.50;99.90;;;;;;5059207;28;20221;-70
2023/02/05 08:36:15;;;;;;;19.80;10.90;;;8.50;99.90;;;;;;5065674;28;20167;-70
2023/02/05 08:38:40;;;;;;;12.80;9.53;;;8.50;99.90;;;;;;5073767;28;20470;-71
2023/02/05 08:41:11;;;;;;;16.40;11.17;;;8.50;99.90;;;;;;5059463;28;20234;-70
2023/02/05 08:43:38;;;;;;;16.53;10.73;;;8.50;99.90;;;;;;5033839;28;20178;-70
2023/02/05 08:46:04;;;;;;;19.13;11.30;;;8.60;99.90;;;;;;5045648;28;20456;-71
2023/02/05 08:48:29;;;;;;;12.90;8.80;;;8.50;99.90;;;;;;5053474;28;20409;-70
2023/02/05 08:50:55;;;;;;;12.83;8.23;;;8.60;99.90;;;;;;5053258;28;20186;-69
2023/02/05 08:53:20;;;;;;;8.47;6.10;;;8.60;99.90;;;;;;5044974;28;20660;-70
2023/02/05 08:55:54;;;;;;;8.90;6.10;;;8.60;99.90;;;;;;5033262;28;20160;-70
2023/02/05 08:58:19;;;;;;;6.77;4.40;;;8.60;99.90;;;;;;5033520;28;20226;-70
2023/02/05 09:00:45;;;;;;;3.43;2.70;;;8.60;99.90;;;;;;5033300;28;20441;-70
2023/02/05 09:03:10;;;;;;;4.50;3.97;;;8.50;99.90;;;;;;5033441;28;20171;-70
2023/02/05 09:05:38;;;;;;;2.33;1.77;;;8.40;99.90;;;;;;5033275;28;20183;-71
2023/02/05 09:08:04;;;;;;;1.97;1.57;;;8.40;99.90;;;;;;5032005;28;20214;-69
2023/02/05 09:10:29;;;;;;;1.63;1.30;;;8.20;99.90;;;;;;5041585;28;20938;-70
2023/02/05 09:12:55;;;;;;;2.13;1.40;;;8.20;99.90;;;;;;5033776;28;20186;-71
2023/02/05 09:15:20;;;;;;;2.27;1.53;;;8.20;99.90;;;;;;5033003;28;20168;-71
2023/02/05 09:17:46;;;;;;;6.23;1.30;;;8.20;99.90;;;;;;5033038;28;20171;-71
2023/02/05 09:20:11;;;;;;;1.03;0.70;;;8.20;99.90;;;;;;5033097;28;20184;-71
2023/02/05 09:22:37;;;;;;;4.83;1.00;;;8.20;99.90;;;;;;5033169;28;20172;-72
2023/02/05 09:25:06;;;;;;;1.77;1.00;;;8.30;99.90;;;;;;5032749;28;20683;-72
2023/02/05 09:27:31;;;;;;;1.20;0.70;;;8.40;99.90;;;;;;5032836;28;20191;-70
2023/02/05 09:29:57;;;;;;;1.27;1.00;;;8.60;99.90;;;;;;5032845;28;20939;-71
2023/02/05 09:32:23;;;;;;;2.40;1.40;;;8.70;99.90;;;;;;5031722;28;20667;-70
2023/02/05 09:34:48;;;;;;;1.00;0.90;;;8.90;99.90;;;;;;5032480;28;20572;-70
2023/02/05 09:37:15;;;;;;;1.73;0.80;;;8.90;99.90;;;;;;5032929;28;20163;-70
2023/02/05 09:39:40;;;;;;;4.00;1.60;;;8.90;99.90;;;;;;5038257;28;20195;-69
2023/02/05 09:42:34;;;;;;;3.20;1.10;;;9.00;99.90;;;;;;5047279;28;20496;-70
2023/02/05 09:45:22;;;;;;;2.30;0.73;;;9.00;99.90;;;;;;5052195;28;20163;-69
2023/02/05 09:48:11;;;;;;;1.17;0.93;;;8.90;99.90;;;;;;5052453;28;20443;-70
2023/02/05 09:50:38;;;;;;;3.57;1.00;;;8.90;99.90;;;;;;5052280;28;20429;-71
2023/02/05 09:53:12;;;;;;;0.87;0.70;;;8.90;99.90;;;;;;5052463;28;20402;-71
2023/02/05 09:55:43;;;;;;;1.07;0.70;;;8.90;99.90;;;;;;5050923;28;20409;-71
2023/02/05 09:58:23;;;;;;;1.17;0.60;;;8.90;99.90;;;;;;5052251;28;20429;-71
2023/02/05 10:00:55;;;;;;;2.80;1.73;;;8.90;99.90;;;;;;5052224;28;20467;-70
2023/02/05 10:03:31;;;;;;;4.33;2.37;;;8.80;99.90;;;;;;5051948;28;20432;-70
2023/02/05 10:06:27;;;;;;;2.50;1.20;;;8.80;99.90;;;;;;5048387;28;20452;-71
2023/02/05 10:09:16;;;;;;;2.37;0.90;;;8.80;99.90;;;;;;5052137;28;20420;-70
2023/02/05 10:12:10;;;;;;;1.10;0.80;;;8.70;99.90;;;;;;5050847;28;20401;-70
2023/02/05 10:15:02;;;;;;;1.30;0.60;;;8.70;99.90;;;;;;5047599;28;20428;-70
2023/02/05 10:17:53;;;;;;;3.70;1.10;;;8.70;99.90;;;;;;5052099;28;20422;-70
2023/02/05 10:20:57;;;;;;;2.23;1.03;;;8.70;99.90;;;;;;5051865;28;20449;-70
2023/02/05 10:24:11;;;;;;;1.83;0.80;;;8.70;99.90;;;;;;5032503;28;20975;-72
2023/02/05 10:26:49;;;;;;;6.80;1.27;;;8.60;99.90;;;;;;5050618;28;20493;-72
2023/02/05 10:29:20;;;;;;;4.53;2.43;;;8.60;99.90;;;;;;5051417;28;20396;-71
2023/02/05 10:31:56;;;;;;;1.70;1.30;;;8.50;99.90;;;;;;5052027;28;20413;-71
2023/02/05 10:34:30;;;;;;;3.57;1.13;;;8.60;99.90;;;;;;5047516;28;20401;-71
2023/02/05 10:36:56;;;;;;;3.63;1.00;;;8.60;99.90;;;;;;5047541;28;20417;-71
2023/02/05 10:39:25;;;;;;;2.60;0.90;;;8.60;99.90;;;;;;5050499;28;20520;-71
2023/02/05 10:41:57;;;;;;;3.97;1.60;;;8.60;99.90;;;;;;5051748;28;20171;-71
2023/02/05 10:44:43;;;;;;;1.53;0.77;;;8.60;99.90;;;;;;5051766;28;20401;-71
2023/02/05 10:47:17;;;;;;;4.20;1.23;;;8.60;99.90;;;;;;5030549;28;20512;-70
2023/02/05 10:50:01;;;;;;;3.10;1.53;;;8.70;99.90;;;;;;5031837;28;20433;-71
2023/02/05 10:52:27;;;;;;;2.80;1.90;;;8.80;99.90;;;;;;5042334;28;20407;-70
2023/02/05 10:54:53;;;;;;;2.13;1.20;;;8.90;99.90;;;;;;5071348;28;20400;-70
2023/02/05 10:57:20;;;;;;;1.30;0.87;;;9.00;99.90;;;;;;5071573;28;20655;-70
2023/02/05 11:00:04;;;;;;;2.03;1.17;;;9.00;99.90;;;;;;5070253;28;20273;-70
2023/02/05 11:02:38;;;;;;;3.00;1.20;;;9.10;99.90;;;;;;5071512;28;20781;-72
2023/02/05 11:05:19;;;;;;;3.73;1.30;;;9.10;99.90;;;;;;5059996;28;20397;-69
2023/02/05 11:07:47;;;;;;;2.00;1.33;;;9.10;99.90;;;;;;5051356;28;20805;-70
2023/02/05 11:10:18;;;;;;;3.50;1.30;;;9.20;99.90;;;;;;5051350;28;20452;-70
2023/02/05 11:12:45;;;;;;;5.40;1.53;;;9.20;99.90;;;;;;5051437;28;20495;-70
2023/02/05 11:15:24;;;;;;;3.63;0.87;;;9.20;99.90;;;;;;5050952;28;20406;-75
2023/02/05 11:17:57;;;;;;;1.63;1.20;;;9.20;99.90;;;;;;5051452;28;20397;-70
2023/02/05 11:20:53;;;;;;;1.30;1.20;;;9.20;99.90;;;;;;5051358;28;20453;-72
2023/02/05 11:23:21;;;;;;;4.30;1.67;;;9.20;99.90;;;;;;5051355;28;20416;-72
2023/02/05 11:25:58;;;;;;;6.00;1.10;;;9.30;99.90;;;;;;5051005;28;20413;-70
2023/02/05 11:28:30;;;;;;;2.90;1.33;;;9.40;99.90;;;;;;5050085;28;20419;-72
2023/02/05 11:30:56;;;;;;;3.47;1.37;;;9.50;99.90;;;;;;5051097;28;20550;-71
2023/02/05 11:33:21;;;;;;;3.50;1.57;;;9.60;99.90;;;;;;5050027;28;20996;-71
2023/02/05 11:36:00;;;;;;;6.10;1.57;;;9.70;99.90;;;;;;5039161;28;20468;-71
2023/02/05 11:38:44;;;;;;;6.60;1.70;;;9.90;99.90;;;;;;5031358;28;20194;-71
2023/02/05 11:41:13;;;;;;;2.03;1.33;;;10.20;99.90;;;;;;5031129;28;20493;-72
2023/02/05 11:43:49;;;;;;;5.33;1.57;;;10.30;99.90;;;;;;5034771;28;20533;-71
2023/02/05 11:46:18;;;;;;;6.83;1.93;;;10.20;99.90;;;;;;5034259;28;20450;-72
2023/02/05 11:48:48;;;;;;;7.27;1.60;;;10.20;99.90;;;;;;5034780;28;20417;-71
2023/02/05 11:51:26;;;;;;;4.40;1.60;;;10.10;99.90;;;;;;5034449;28;20414;-71
2023/02/05 11:53:56;;;;;;;10.20;1.80;;;10.00;99.90;;;;;;5033492;28;20488;-69
2023/02/05 11:56:23;;;;;;;3.83;2.10;;;9.90;99.90;;;;;;5034480;28;20797;-70
2023/02/05 11:59:04;;;;;;;9.23;2.57;;;9.80;99.90;;;;;;5034596;28;20402;-70
2023/02/05 12:01:34;;;;;;;4.47;1.97;;;9.70;99.90;;;;;;5036656;28;20398;-70
2023/02/05 12:04:16;;;;;;;7.70;1.87;;;9.60;99.90;;;;;;5061133;28;20419;-71
2023/02/05 12:06:49;;;;;;;8.20;1.87;;;9.50;99.90;;;;;;5074249;28;20448;-71
2023/02/05 12:09:19;;;;;;;6.50;1.57;;;9.40;99.90;;;;;;5074173;28;20427;-71
2023/02/05 12:12:36;;;;;;;2.90;1.47;;;9.40;99.90;;;;;;5073069;28;20773;-70
2023/02/05 12:15:11;;;;;;;6.20;1.30;;;9.30;99.90;;;;;;5061755;28;20420;-70
2023/02/05 12:17:54;;;;;;;9.63;1.80;;;9.20;99.90;;;;;;5073994;28;20401;-70
2023/02/05 12:20:36;;;;;;;5.43;1.80;;;9.10;99.90;;;;;;5045733;28;20426;-70
2023/02/05 12:23:29;;;;;;;2.77;1.20;;;9.10;99.90;;;;;;5034133;28;21087;-70
2023/02/05 12:26:19;;;;;;;6.07;1.50;;;9.00;99.90;;;;;;5033806;28;20558;-71
2023/02/05 12:29:36;;;;;;;2.73;2.00;;;8.90;99.90;;;;;;5032648;28;20402;-70
2023/02/05 12:32:29;;;;;;;2.93;1.80;;;8.80;99.90;;;;;;5024645;28;20464;-71
2023/02/05 12:35:22;;;;;;;2.80;1.20;;;8.70;99.90;;;;;;5033556;28;20737;-72
2023/02/05 12:38:05;;;;;;;13.50;2.63;;;8.70;99.90;;;;;;5033902;28;20435;-70
2023/02/05 12:40:38;;;;;;;4.77;1.60;;;8.70;99.90;;;;;;5032468;28;20422;-70
2023/02/05 12:43:30;;;;;;;4.10;1.33;;;8.50;99.90;;;;;;5033863;28;20383;-70
2023/02/05 12:46:17;;;;;;;4.50;1.63;;;8.50;99.90;;;;;;5043001;28;20814;-70
2023/02/05 12:48:58;;;;;;;5.60;1.33;;;8.40;99.90;;;;;;5053621;28;20397;-72
2023/02/05 12:51:35;;;;;;;4.03;1.30;;;8.40;99.90;;;;;;5053494;28;20442;-70
2023/02/05 12:54:19;;;;;;;1.47;1.03;;;8.30;99.90;;;;;;5053182;28;20437;-71
2023/02/05 12:56:57;;;;;;;1.63;1.43;;;8.30;99.90;;;;;;5053338;28;20397;-69
2023/02/05 12:59:43;;;;;;;2.80;1.97;;;8.40;99.90;;;;;;5053453;28;20979;-70
2023/02/05 13:02:17;;;;;;;3.97;1.20;;;8.40;99.90;;;;;;5052920;28;20413;-70
2023/02/05 13:05:07;;;;;;;6.63;1.60;;;8.30;99.90;;;;;;5044118;28;20413;-70
2023/02/05 13:07:38;;;;;;;1.90;1.30;;;8.40;99.90;;;;;;5033173;28;20533;-70
2023/02/05 13:10:05;;;;;;;5.07;1.50;;;8.40;99.90;;;;;;5033037;28;20460;-70